• Join FlightAware (Why Join?)
  • Login
  • US Flag 
12:31PM EDT


 

Airport Tracker/Info


-or-


 

Live Flight TrackerFlight Track Log ✈ EJA929 ✈ 12-Jul-2013 ✈ KDAL - KHOU

Flight Track Log - Related Links

Times and Time Zones

All times are in EDT time to prevent confusion due to time zone crossing. See the EJA929 flight status page for this flight to view local times or setup timezone preferences in your user account.

Time Position Orientation Groundspeed Altitude Reporting Facility
EDT Latitude Longitude Course Direction KTS MPH feet Rate Location/Type
10:13AM 32.8333 -96.8333 140° Southeast 183 211 1,600  Level Dallas / Fort Worth TRACON
10:13AM 32.8167 -96.8167 140° Southeast 207 238 3,100 2,400 Climbing Dallas / Fort Worth TRACON
10:14AM 32.7667 -96.7500 132° Southeast 247 284 5,400 2,520 Climbing Dallas / Fort Worth TRACON
10:16AM 32.6542 -96.7447 178° South 264 304 9,900 1,680 Climbing Fort Worth Center
10:17AM 32.5583 -96.7972 205° Southwest 347 399 10,000 900 Climbing Fort Worth Center
10:18AM 32.4564 -96.8494 203° Southwest 388 447 11,700 2,100 Climbing Fort Worth Center
10:19AM 32.3583 -96.8994 203° Southwest 397 457 14,300 1,920 Climbing Fort Worth Center
10:20AM 32.2583 -96.9344 196° South 392 451 15,600 1,380 Climbing Fort Worth Center
10:21AM 32.1478 -96.9203 174° South 381 438 17,100 1,500 Climbing Fort Worth Center
10:22AM 32.0369 -96.8986 171° South 392 451 18,600 1,320 Climbing Fort Worth Center
10:23AM 31.9367 -96.8822 172° South 398 458 19,800 1,140 Climbing Fort Worth Center
10:24AM 31.8217 -96.8583 170° South 414 476 20,900 600 Climbing Fort Worth Center
10:25AM 31.6983 -96.8372 172° South 439 505 21,000  Climbing Fort Worth Center
10:26AM 31.5325 -96.8094 172° South 450 518 21,000  Level Houston Center
10:27AM 31.4161 -96.7675 163° South 439 505 21,000  Level Houston Center
10:28AM 31.3022 -96.7142 158° South 436 502 21,000  Level Houston Center
10:29AM 31.1661 -96.6500 158° South 441 507 21,000  Level Houston Center
10:30AM 31.0492 -96.5956 158° South 443 510 21,000  Level Houston Center
10:31AM 30.9322 -96.5408 158° South 445 512 21,000  Level Houston Center
10:32AM 30.8139 -96.4864 158° South 448 516 21,000 -60 Level Houston Center
10:33AM 30.6953 -96.4319 158° South 451 519 20,900 -1,200 Descending Houston Center
10:34AM 30.5781 -96.3750 157° South 450 518 18,500 -2,340 Descending Houston Center
10:35AM 30.4600 -96.3228 159° South 449 517 16,100 -2,280 Descending Houston Center
10:37AM 30.3492 -96.2711 158° South 428 493 13,800 -2,460 Descending Houston Center
10:38AM 30.2231 -96.2142 159° South 411 473 11,100 -1,500 Descending Houston Center
10:39AM 30.1308 -96.1661 156° South 398 458 10,700 -540 Descending Houston Center
10:40AM 30.0200 -96.0939 151° Southeast 389 448 10,000 -720 Descending Houston Center
10:41AM 29.9786 -96.0047 118° Southeast 288 331 9,300 -1,740 Descending Houston Center
10:42AM 29.9522 -95.9183 109° East 276 318 6,500 -1,620 Descending Houston Center
10:43AM 29.9264 -95.8394 111° Southeast 267 307 6,100 -240 Descending Houston Center
10:44AM 29.9008 -95.7603 110° East 265 305 6,000 -60 Descending Houston Center
10:45AM 29.8753 -95.6806 110° East 264 304 6,000 -120 Level Houston Center
10:46AM 29.8475 -95.5994 112° Southeast 270 311 5,800 -960 Descending Houston Center
10:47AM 29.8181 -95.5047 110° East 264 304 4,100 -900 Descending Houston Center
10:48AM 29.7886 -95.4486 121° Southeast 225 259 4,100 -780 Level Houston Center
10:49AM 29.7439 -95.3964 135° Southeast 190 219 2,700 -1,200 Descending Houston Center
10:50AM 29.7064 -95.3528 135° Southeast 195 224 1,700 -900 Descending Houston Center
10:51AM 29.6756 -95.3156 134° Southeast 145 167 900 -720 Descending Houston Center
10:52AM 29.6431 -95.2756 133° Southeast 165 190 100 -660 Descending Houston Center
10:54AM 29.6454 -95.2789 124° Southeast  Level Estimated